Time;durP1;ratioP1;P1;durP2;ratioP2;P2;SDS_P1;SDS_P2;PMS_P1;PMS_P2;Temp;Humidity;BMP_temperature;BMP_pressure;BME280_temperature;BME280_humidity;BME280_pressure;Samples;Min_cycle;Max_cycle;Signal;HPM_P1;HPM_P2
2022/08/28 00:02:38;;;;;;;22.42;19.98;;;17.90;99.90;;;18.46;100.00;97838.53;5222977;28;20208;-67
2022/08/28 00:05:20;;;;;;;21.77;18.52;;;17.90;99.90;;;18.48;100.00;97846.31;5219085;28;20228;-67
2022/08/28 00:07:58;;;;;;;22.27;19.73;;;17.90;99.90;;;18.49;100.00;97848.97;5218909;28;20213;-66
2022/08/28 00:10:38;;;;;;;23.02;20.10;;;17.90;99.90;;;18.51;100.00;97849.00;5234012;28;20201;-67
2022/08/28 00:13:20;;;;;;;22.27;19.45;;;18.00;99.90;;;18.56;100.00;97852.56;5222865;28;20342;-67
2022/08/28 00:16:01;;;;;;;20.33;18.27;;;17.90;99.90;;;18.54;100.00;97846.47;5223399;28;20205;-67
2022/08/28 00:18:43;;;;;;;20.80;18.60;;;17.90;99.90;;;18.54;100.00;97849.06;5222003;28;20205;-67
2022/08/28 00:21:23;;;;;;;22.08;19.77;;;17.90;99.90;;;18.58;100.00;97846.59;5219646;28;20270;-67
2022/08/28 00:24:04;;;;;;;23.08;19.52;;;17.90;99.90;;;18.60;100.00;97847.53;5223080;28;20312;-67
2022/08/28 00:29:43;;;;;;;18.75;16.85;;;17.90;99.90;;;18.59;100.00;97853.53;5221630;28;20254;-67
2022/08/28 00:36:10;;;;;;;20.55;17.10;;;17.90;99.90;;;18.51;100.00;97841.22;5217799;28;20268;-67
2022/08/28 00:38:58;;;;;;;19.75;17.70;;;17.90;99.90;;;18.53;100.00;97839.56;5218506;28;20832;-66
2022/08/28 00:41:55;;;;;;;18.70;16.80;;;17.90;99.90;;;18.43;100.00;97841.91;5219151;28;20208;-66
2022/08/28 00:44:58;;;;;;;16.70;15.20;;;17.80;99.90;;;18.49;100.00;97850.69;5221228;28;20256;-67
2022/08/28 00:47:59;;;;;;;20.05;17.95;;;17.90;99.90;;;18.52;100.00;97843.88;5221880;28;20197;-67
2022/08/28 00:54:05;;;;;;;16.63;15.13;;;17.90;99.90;;;18.55;100.00;97843.06;5218532;28;20312;-67
2022/08/28 00:57:32;;;;;;;15.45;14.07;;;17.90;99.90;;;18.55;100.00;97845.66;5219817;28;20342;-67
2022/08/28 01:00:15;;;;;;;14.93;13.70;;;18.00;99.90;;;18.53;100.00;97839.56;5222041;28;20208;-66
2022/08/28 01:03:05;;;;;;;13.88;12.73;;;18.00;99.90;;;18.52;100.00;97838.69;5222544;28;20205;-67
2022/08/28 01:05:53;;;;;;;15.63;14.23;;;17.90;99.90;;;18.53;100.00;97835.25;5215627;28;20229;-67
2022/08/28 01:08:34;;;;;;;16.45;14.88;;;17.90;99.90;;;18.56;100.00;97829.28;5221395;28;20204;-67
2022/08/28 01:11:29;;;;;;;17.17;15.57;;;18.00;99.90;;;18.58;100.00;97823.31;5219727;28;20262;-66
2022/08/28 01:14:16;;;;;;;16.17;14.55;;;18.00;99.90;;;18.58;100.00;97827.59;5221219;28;20766;-67
2022/08/28 01:16:59;;;;;;;17.05;15.38;;;18.00;99.90;;;18.59;100.00;97829.34;5236493;28;20652;-67
2022/08/28 01:19:44;;;;;;;17.38;15.57;;;18.00;99.90;;;18.61;100.00;97828.56;5221245;28;20228;-67
2022/08/28 01:22:30;;;;;;;18.73;16.83;;;18.00;99.90;;;18.65;100.00;97824.31;5218135;28;20288;-67
2022/08/28 01:25:14;;;;;;;17.92;16.23;;;18.10;99.90;;;18.68;100.00;97829.56;5219856;28;20221;-67
2022/08/28 01:28:02;;;;;;;17.30;15.57;;;18.10;99.90;;;18.66;100.00;97826.97;5221946;28;20279;-67
2022/08/28 01:30:44;;;;;;;20.00;17.77;;;18.10;99.90;;;18.66;100.00;97836.44;5219310;28;20216;-67
2022/08/28 01:33:24;;;;;;;19.48;17.58;;;18.10;99.90;;;18.66;100.00;97839.91;5236444;28;20710;-66
2022/08/28 01:36:03;;;;;;;17.25;15.65;;;18.10;99.90;;;18.71;100.00;97834.81;5221282;28;20209;-66
2022/08/28 01:38:46;;;;;;;19.75;17.83;;;18.10;99.90;;;18.71;100.00;97840.00;5218342;28;20209;-67
2022/08/28 01:41:32;;;;;;;21.05;18.88;;;18.10;99.90;;;18.71;100.00;97834.81;5217054;28;20227;-67
2022/08/28 01:44:10;;;;;;;22.02;19.63;;;18.10;99.90;;;18.72;100.00;97833.13;5219605;28;20275;-67
2022/08/28 01:46:55;;;;;;;24.90;21.13;;;18.10;99.90;;;18.72;100.00;97825.38;5220257;28;20205;-67
2022/08/28 01:49:34;;;;;;;22.80;20.23;;;18.10;99.90;;;18.74;100.00;97832.34;5217527;28;20267;-67
2022/08/28 01:52:16;;;;;;;23.48;20.83;;;18.10;99.90;;;18.74;100.00;97824.56;5221086;28;20200;-66
2022/08/28 01:55:03;;;;;;;24.30;20.63;;;18.10;99.90;;;18.75;100.00;97826.34;5221485;28;20228;-68
2022/08/28 01:57:48;;;;;;;25.30;20.98;;;18.10;99.90;;;18.73;100.00;97825.38;5219989;28;20216;-67
2022/08/28 02:00:38;;;;;;;24.52;21.58;;;18.10;99.90;;;18.74;100.00;97834.94;5218270;28;20554;-68
2022/08/28 02:03:17;;;;;;;27.08;22.33;;;18.10;99.90;;;18.74;100.00;97831.47;5223371;28;20221;-68
2022/08/28 02:05:59;;;;;;;26.25;22.85;;;18.10;99.90;;;18.73;100.00;97832.28;5221034;28;20650;-68
2022/08/28 02:08:40;;;;;;;23.20;20.70;;;18.10;99.90;;;18.73;100.00;97835.75;5222507;28;20676;-68
2022/08/28 02:11:24;;;;;;;26.77;21.65;;;18.10;99.90;;;18.67;100.00;97823.53;5219642;28;20669;-68
2022/08/28 02:14:12;;;;;;;25.20;20.92;;;18.10;99.90;;;18.67;100.00;97840.78;5223221;28;20224;-68
2022/08/28 02:16:55;;;;;;;25.30;21.85;;;18.10;99.90;;;18.68;100.00;97829.56;5216493;28;20204;-68
2022/08/28 02:19:38;;;;;;;22.90;19.98;;;18.10;99.90;;;18.70;100.00;97827.91;5223204;28;20217;-68
2022/08/28 02:22:20;;;;;;;24.75;21.30;;;18.10;99.90;;;18.70;100.00;97838.25;5224543;28;20212;-68
2022/08/28 02:24:58;;;;;;;21.75;19.45;;;18.10;99.90;;;18.73;100.00;97827.97;5218133;28;20229;-68
2022/08/28 02:27:41;;;;;;;25.67;21.48;;;18.10;99.90;;;18.70;100.00;97827.91;5216499;28;20598;-68
2022/08/28 02:30:47;;;;;;;22.92;20.45;;;18.10;99.90;;;18.69;100.00;97832.22;5237080;28;20665;-68
2022/08/28 02:33:34;;;;;;;20.73;18.58;;;18.10;99.90;;;18.73;100.00;97838.34;5221142;28;20281;-68
2022/08/28 02:36:15;;;;;;;22.05;19.75;;;18.10;99.90;;;18.73;100.00;97840.91;5218971;28;20251;-67
2022/08/28 02:38:53;;;;;;;25.38;21.42;;;18.10;99.90;;;18.76;100.00;97840.16;5221765;28;20851;-68
2022/08/28 02:41:34;;;;;;;21.35;19.25;;;18.20;99.90;;;18.79;100.00;97838.50;5232358;28;20748;-68
2022/08/28 02:44:16;;;;;;;19.27;17.38;;;18.20;99.90;;;18.69;100.00;97839.09;5220088;28;20311;-68
2022/08/28 02:47:11;;;;;;;17.77;16.05;;;18.10;99.90;;;18.67;100.00;97848.53;5221597;28;20200;-68
2022/08/28 02:49:54;;;;;;;15.73;14.32;;;18.10;99.90;;;18.66;100.00;97844.22;5218372;28;20207;-67
2022/08/28 02:52:45;;;;;;;18.77;16.98;;;18.10;99.90;;;18.69;100.00;97847.75;5221428;28;20204;-67
2022/08/28 02:58:25;;;;;;;17.77;16.08;;;18.10;99.90;;;18.77;100.00;97850.56;5218849;28;20204;-68
2022/08/28 03:01:06;;;;;;;17.42;15.93;;;18.10;99.90;;;18.78;100.00;97841.94;5219800;28;20940;-67
2022/08/28 03:03:47;;;;;;;17.10;15.50;;;18.10;99.90;;;18.81;100.00;97841.16;5218756;28;20213;-68
2022/08/28 03:06:28;;;;;;;15.70;14.35;;;18.10;99.90;;;18.77;100.00;97842.81;5223636;28;20225;-68
2022/08/28 03:09:49;;;;;;;15.75;14.45;;;18.10;99.90;;;18.78;100.00;97839.38;5226090;28;20580;-68
2022/08/28 03:12:30;;;;;;;16.90;15.52;;;18.10;99.90;;;18.81;100.00;97830.78;5226170;28;20255;-68
2022/08/28 03:15:20;;;;;;;16.90;15.57;;;18.10;99.90;;;18.79;100.00;97838.50;5224151;28;20225;-68
2022/08/28 03:18:06;;;;;;;18.52;16.73;;;18.10;99.90;;;18.72;100.00;97834.00;5223863;28;20280;-68
2022/08/28 03:21:08;;;;;;;18.35;16.42;;;18.00;99.90;;;18.69;100.00;97836.53;5220147;28;20665;-68
2022/08/28 03:23:48;;;;;;;18.98;17.30;;;18.10;99.90;;;18.69;100.00;97836.53;5226073;28;20252;-68
2022/08/28 03:26:29;;;;;;;17.40;15.73;;;18.10;99.90;;;18.74;100.00;97840.09;5223433;28;20231;-68
2022/08/28 03:29:19;;;;;;;19.00;17.30;;;18.10;99.90;;;18.72;100.00;97836.59;5225314;28;20209;-66
2022/08/28 03:32:02;;;;;;;19.35;17.55;;;18.10;99.90;;;18.73;100.00;97838.34;5224585;28;20710;-68
2022/08/28 03:34:48;;;;;;;20.02;18.15;;;18.10;99.90;;;18.75;100.00;97841.88;5224715;28;20751;-67
2022/08/28 03:37:37;;;;;;;19.83;17.92;;;18.10;99.90;;;18.76;100.00;97841.03;5225821;28;20236;-68
2022/08/28 03:40:20;;;;;;;21.00;19.00;;;18.20;99.90;;;18.76;100.00;97841.03;5225445;28;20204;-68
2022/08/28 03:43:05;;;;;;;19.50;17.50;;;18.20;99.90;;;18.77;100.00;97839.31;5225412;28;20244;-67
2022/08/28 03:45:56;;;;;;;21.27;19.17;;;18.20;99.90;;;18.80;100.00;97845.47;5208660;28;20225;-68
2022/08/28 03:48:45;;;;;;;22.05;19.80;;;18.20;99.90;;;18.80;100.00;97837.69;5240738;28;20201;-67
2022/08/28 03:51:36;;;;;;;22.98;20.67;;;18.20;99.90;;;18.84;100.00;97836.03;5224609;28;20213;-67
2022/08/28 03:54:46;;;;;;;26.13;23.17;;;18.20;99.90;;;18.88;100.00;97838.72;5224868;28;20943;-67
2022/08/28 03:57:33;;;;;;;27.27;24.17;;;18.20;99.90;;;18.89;100.00;97839.63;5224517;28;20224;-67
2022/08/28 04:00:21;;;;;;;24.48;21.88;;;18.20;99.90;;;18.88;100.00;97846.50;5224914;28;20209;-68
2022/08/28 04:03:00;;;;;;;27.10;24.20;;;18.20;99.90;;;18.85;100.00;97843.84;5224137;28;20208;-68
2022/08/28 04:05:41;;;;;;;28.33;25.30;;;18.20;99.90;;;18.87;100.00;97843.88;5221991;28;20213;-67
2022/08/28 04:08:21;;;;;;;25.10;22.60;;;18.20;99.90;;;18.86;100.00;97840.44;5238636;28;20291;-67
2022/08/28 04:11:14;;;;;;;28.92;24.15;;;18.20;99.90;;;18.86;100.00;97855.09;5223692;28;20215;-68
2022/08/28 04:13:57;;;;;;;27.58;24.70;;;18.20;99.90;;;18.86;100.00;97849.91;5222216;28;20232;-67
2022/08/28 04:16:41;;;;;;;28.40;25.10;;;18.20;99.90;;;18.84;100.00;97851.59;5223209;28;20276;-67
2022/08/28 04:19:26;;;;;;;24.40;22.00;;;18.20;99.90;;;18.81;100.00;97857.56;5224241;28;20284;-67
2022/08/28 04:22:16;;;;;;;22.33;20.02;;;18.20;99.90;;;18.80;100.00;97855.81;5238785;28;20332;-68
2022/08/28 04:24:58;;;;;;;20.52;18.48;;;18.10;99.90;;;18.74;100.00;97857.38;5221257;28;20221;-68
2022/08/28 04:27:37;;;;;;;23.50;21.00;;;18.10;99.90;;;18.76;100.00;97853.97;5229637;28;20216;-68
2022/08/28 04:30:20;;;;;;;24.63;21.83;;;18.20;99.90;;;18.76;100.00;97858.28;5220920;28;20217;-68
2022/08/28 04:32:59;;;;;;;21.92;19.73;;;18.20;99.90;;;18.78;100.00;97851.44;5227565;28;20201;-67
2022/08/28 04:35:46;;;;;;;23.90;21.52;;;18.20;99.90;;;18.80;100.00;97860.09;5226772;28;20922;-68
2022/08/28 04:38:27;;;;;;;24.48;21.85;;;18.20;99.90;;;18.83;100.00;97858.47;5224160;28;20693;-67
2022/08/28 04:41:06;;;;;;;22.42;20.05;;;18.20;99.90;;;18.83;100.00;97866.25;5224678;28;20677;-67
2022/08/28 04:43:58;;;;;;;22.20;20.08;;;18.20;99.90;;;18.88;100.00;97867.22;5220571;28;20270;-67
2022/08/28 04:46:40;;;;;;;24.10;20.83;;;18.30;99.90;;;18.92;100.00;97869.91;5225531;28;20328;-68
2022/08/28 04:49:26;;;;;;;25.83;23.17;;;18.30;99.90;;;18.88;100.00;97867.22;5222896;28;20202;-68
2022/08/28 04:52:05;;;;;;;30.55;25.23;;;18.30;99.90;;;18.90;100.00;97868.13;5223019;28;20211;-68
2022/08/28 04:54:48;;;;;;;25.80;23.13;;;18.30;99.90;;;18.91;100.00;97869.00;5221824;28;20320;-68
2022/08/28 04:57:41;;;;;;;26.52;23.67;;;18.30;99.90;;;18.93;100.00;97867.34;5221386;28;20197;-68
2022/08/28 05:00:38;;;;;;;27.40;24.50;;;18.30;99.90;;;18.93;100.00;97866.47;5237258;28;20240;-68
2022/08/28 05:03:31;;;;;;;25.30;22.73;;;18.30;99.90;;;18.93;100.00;97863.88;5222397;28;20225;-68
2022/08/28 05:06:11;;;;;;;26.73;23.92;;;18.30;99.90;;;18.93;100.00;97862.16;5222163;28;20224;-68
2022/08/28 05:08:59;;;;;;;28.75;25.63;;;18.30;99.90;;;18.97;100.00;97863.09;5222497;28;20212;-68
2022/08/28 05:11:41;;;;;;;26.48;23.77;;;18.30;99.90;;;18.93;100.00;97864.75;5221780;28;20284;-68
2022/08/28 05:14:22;;;;;;;27.42;23.90;;;18.30;99.90;;;18.95;100.00;97862.22;5221990;28;20342;-68
2022/08/28 05:17:03;;;;;;;28.50;25.33;;;18.30;99.90;;;18.98;100.00;97857.97;5224075;28;20197;-68
2022/08/28 05:19:48;;;;;;;26.55;23.73;;;18.30;99.90;;;18.98;100.00;97857.09;5219477;28;20732;-68
2022/08/28 05:22:36;;;;;;;30.67;25.88;;;18.30;99.90;;;18.99;100.00;97866.63;5222723;28;20271;-67
2022/08/28 05:25:16;;;;;;;28.13;25.30;;;18.30;99.90;;;19.03;100.00;97863.25;5222431;28;20308;-68
2022/08/28 05:27:58;;;;;;;25.02;22.42;;;18.40;99.90;;;19.05;100.00;97867.63;5223648;28;20282;-67
2022/08/28 05:31:12;;;;;;;25.95;23.42;;;18.40;99.90;;;19.13;100.00;97873.00;5220252;28;20205;-68
2022/08/28 05:34:09;;;;;;;27.42;24.52;;;18.50;99.90;;;19.16;100.00;97878.25;5222796;28;20307;-67
2022/08/28 05:37:11;;;;;;;26.23;23.58;;;18.40;99.90;;;19.18;100.00;97876.59;5184526;28;20197;-68
2022/08/28 05:40:05;;;;;;;25.27;22.90;;;18.40;99.90;;;19.16;100.00;97878.25;5220433;28;20205;-67
2022/08/28 05:42:46;;;;;;;25.92;23.30;;;18.50;99.90;;;19.23;100.00;97885.34;5221651;28;20209;-68
2022/08/28 05:48:42;;;;;;;28.92;25.83;;;18.50;99.90;;;19.15;100.00;97889.47;5221004;28;20307;-68
2022/08/28 05:51:47;;;;;;;29.55;25.25;;;18.40;99.90;;;19.15;100.00;97894.66;5223392;28;20202;-66
2022/08/28 05:54:54;;;;;;;30.88;26.23;;;18.40;99.90;;;19.20;100.00;97894.75;5221358;28;20240;-67
2022/08/28 05:58:27;;;;;;;26.52;23.73;;;18.40;99.90;;;19.22;100.00;97896.53;5224494;28;20197;-68
2022/08/28 06:07:27;;;;;;;26.88;24.10;;;18.60;99.90;;;19.22;100.00;97888.75;5219136;28;20220;-68
2022/08/28 06:10:08;;;;;;;28.65;25.65;;;18.60;99.90;;;19.30;100.00;97892.41;5219281;28;20209;-68
2022/08/28 06:12:48;;;;;;;27.48;24.50;;;18.70;99.90;;;19.43;100.00;97893.59;5219051;28;20233;-68
2022/08/28 06:15:30;;;;;;;27.60;24.80;;;18.70;99.90;;;19.47;100.00;97897.09;5217907;28;20208;-68
2022/08/28 06:18:16;;;;;;;27.35;24.58;;;18.80;99.90;;;19.57;100.00;97896.44;5233377;28;20197;-68
2022/08/28 06:21:01;;;;;;;27.88;24.75;;;18.90;99.90;;;19.70;100.00;97898.53;5222297;28;20197;-68
2022/08/28 06:23:55;;;;;;;27.00;24.15;;;19.00;99.90;;;19.88;100.00;97898.03;5221711;28;20256;-68
2022/08/28 06:26:33;;;;;;;27.48;24.55;;;19.10;99.90;;;20.01;100.00;97896.56;5214745;28;20633;-67
2022/08/28 06:29:21;;;;;;;26.98;24.17;;;19.30;99.90;;;20.13;100.00;97899.41;5216727;28;20703;-68
2022/08/28 06:32:19;;;;;;;26.33;23.33;;;19.40;99.90;;;20.16;100.00;97903.78;5220348;28;20631;-67
2022/08/28 06:35:12;;;;;;;25.98;23.27;;;19.40;99.90;;;20.10;100.00;97912.31;5218301;28;20224;-67
2022/08/28 06:38:06;;;;;;;24.20;21.88;;;19.30;99.90;;;20.06;100.00;97910.53;5218182;28;20201;-68
2022/08/28 06:41:11;;;;;;;24.73;22.23;;;19.20;99.90;;;19.98;100.00;97917.28;5218000;28;20581;-68
2022/08/28 06:47:22;;;;;;;24.15;21.77;;;19.20;99.90;;;19.82;100.00;97925.56;5222791;28;20228;-68
2022/08/28 06:50:10;;;;;;;24.52;22.13;;;19.10;99.90;;;19.70;100.00;97923.59;5219440;28;20632;-68
2022/08/28 06:53:15;;;;;;;24.13;21.55;;;19.00;99.90;;;19.69;100.00;97924.44;5223132;28;20208;-67
2022/08/28 06:56:17;;;;;;;24.73;22.33;;;19.00;99.90;;;19.68;100.00;97923.53;5222669;28;20205;-68
2022/08/28 06:59:15;;;;;;;24.83;22.15;;;19.00;99.90;;;19.71;100.00;97920.13;5222152;28;20556;-66
2022/08/28 07:02:11;;;;;;;24.00;21.80;;;19.10;99.90;;;19.66;100.00;97930.44;5224423;28;20205;-68
2022/08/28 07:04:53;;;;;;;24.90;22.30;;;19.00;99.90;;;19.65;100.00;97932.94;5223599;28;20233;-68
2022/08/28 07:10:37;;;;;;;24.92;22.52;;;19.10;99.90;;;19.73;100.00;97924.53;5225301;28;20597;-67
2022/08/28 07:13:49;;;;;;;24.48;22.08;;;19.00;99.90;;;19.86;100.00;97942.94;5219825;28;20260;-68
2022/08/28 07:17:08;;;;;;;23.85;21.42;;;19.10;99.90;;;19.75;100.00;97938.41;5220212;28;20204;-67
2022/08/28 07:20:12;;;;;;;22.50;20.10;;;19.20;99.90;;;19.75;99.69;97946.19;5219174;28;20650;-67
2022/08/28 07:23:05;;;;;;;22.23;20.13;;;19.10;99.90;;;19.83;98.12;97953.25;5222447;28;20255;-67
2022/08/28 07:25:57;;;;;;;22.58;20.33;;;19.20;99.90;;;19.78;97.92;97950.56;5220527;28;20731;-67
2022/08/28 07:29:06;;;;;;;23.15;20.65;;;19.20;99.90;;;19.62;96.87;97948.44;5218905;28;20719;-67
2022/08/28 07:32:48;;;;;;;22.48;20.35;;;19.10;99.90;;;19.70;97.45;97952.97;5221805;28;20657;-67
2022/08/28 07:36:41;;;;;;;22.23;20.13;;;19.00;99.90;;;19.62;98.95;97962.28;5218573;28;20251;-67
2022/08/28 07:47:10;;;;;;;22.00;19.88;;;19.00;99.90;;;19.69;99.71;97961.63;5222228;28;20589;-67
2022/08/28 07:49:44;;;;;;;21.13;19.02;;;19.00;99.90;;;19.85;100.00;97965.41;5222269;28;20208;-67
2022/08/28 07:52:19;;;;;;;21.92;19.73;;;19.20;99.90;;;20.00;100.00;97968.38;5223366;28;20606;-68
2022/08/28 07:54:52;;;;;;;21.50;19.60;;;19.20;99.90;;;20.16;100.00;97973.88;5218642;28;20643;-68
2022/08/28 07:57:25;;;;;;;22.98;20.75;;;19.40;99.90;;;20.20;99.80;97971.38;5219599;28;20232;-67
2022/08/28 07:59:59;;;;;;;21.13;19.10;;;19.50;99.90;;;20.17;98.84;97971.31;5220471;28;20265;-67
2022/08/28 08:02:32;;;;;;;22.40;20.17;;;19.40;99.90;;;20.12;97.95;97966.88;5222185;28;20300;-67
2022/08/28 08:05:06;;;;;;;21.45;19.40;;;19.40;99.90;;;20.21;100.00;97977.44;5217203;28;20304;-67
2022/08/28 08:07:41;;;;;;;22.35;19.42;;;19.40;99.90;;;20.21;96.11;97983.50;5220996;28;20248;-68
2022/08/28 08:10:16;;;;;;;21.50;19.48;;;19.40;99.90;;;20.07;95.69;97982.34;5219770;28;20201;-67
2022/08/28 08:12:52;;;;;;;20.83;18.75;;;19.40;99.90;;;20.11;98.88;97976.34;5220908;28;20219;-68
2022/08/28 08:15:25;;;;;;;21.15;19.25;;;19.40;99.90;;;20.22;99.74;97985.25;5221528;28;20734;-67
2022/08/28 08:18:03;;;;;;;22.10;20.00;;;19.50;99.90;;;20.30;98.07;97993.19;5221661;28;20657;-67
2022/08/28 08:20:38;;;;;;;20.23;18.15;;;19.70;99.90;;;20.48;100.00;97974.50;5219214;28;20296;-67
2022/08/28 08:23:12;;;;;;;22.25;20.13;;;19.80;99.90;;;20.67;100.00;97989.66;5218677;28;20267;-67
2022/08/28 08:25:55;;;;;;;20.13;18.02;;;20.00;99.90;;;20.65;96.22;97986.13;5223229;28;20669;-68
2022/08/28 08:28:29;;;;;;;20.98;18.98;;;19.90;99.90;;;20.68;96.53;97999.19;5220793;28;20669;-67
2022/08/28 08:31:08;;;;;;;20.77;18.70;;;20.00;99.90;;;20.89;98.42;97997.88;5222792;28;20292;-66
2022/08/28 08:33:45;;;;;;;20.35;18.38;;;20.20;99.90;;;20.93;95.77;97992.72;5218356;28;20744;-67
2022/08/28 08:36:21;;;;;;;19.55;17.30;;;20.20;99.90;;;20.86;93.17;97998.69;5219412;28;20236;-67
2022/08/28 08:38:58;;;;;;;18.60;16.80;;;20.20;99.90;;;20.99;97.49;98002.38;5222425;28;20274;-67
2022/08/28 08:41:39;;;;;;;18.33;16.60;;;20.20;99.90;;;21.03;97.84;98004.19;5219845;28;20194;-67
2022/08/28 08:44:25;;;;;;;19.33;17.48;;;20.20;99.90;;;21.02;93.23;98002.41;5218704;28;20685;-67
2022/08/28 08:47:12;;;;;;;18.75;17.00;;;20.20;99.90;;;20.98;93.95;98010.16;5216229;28;20198;-66
2022/08/28 08:49:52;;;;;;;19.83;17.85;;;20.20;99.90;;;21.02;95.42;98001.56;5217471;28;20216;-67
2022/08/28 08:52:44;;;;;;;19.90;17.80;;;20.20;99.90;;;21.01;94.15;98010.22;5217427;28;20204;-66
2022/08/28 08:55:25;;;;;;;18.67;17.05;;;20.20;99.90;;;21.06;97.28;98009.44;5216526;28;20253;-66
2022/08/28 08:58:04;;;;;;;18.13;16.42;;;20.20;99.90;;;20.99;91.90;98017.97;5214714;28;20255;-67
2022/08/28 09:00:56;;;;;;;19.00;17.10;;;20.20;99.90;;;20.97;93.09;98014.44;5218843;28;20245;-66
2022/08/28 09:03:48;;;;;;;17.95;16.33;;;20.20;99.90;;;20.99;93.23;98025.75;5217460;28;20386;-65
2022/08/28 09:06:34;;;;;;;19.52;17.65;;;20.20;99.90;;;21.08;93.74;98018.13;5216088;28;20201;-67
2022/08/28 09:09:18;;;;;;;18.70;16.85;;;20.30;99.90;;;21.07;91.21;98016.38;5215605;28;20306;-66
2022/08/28 09:11:58;;;;;;;17.50;15.90;;;20.20;99.90;;;21.13;92.06;98026.00;5215678;28;20269;-67
2022/08/28 09:14:41;;;;;;;18.15;16.35;;;20.30;99.90;;;21.25;92.75;98027.94;5213508;28;20229;-67
2022/08/28 09:17:19;;;;;;;19.33;17.40;;;20.40;99.90;;;21.32;91.32;98027.22;5215443;28;20296;-67
2022/08/28 09:19:52;;;;;;;18.63;16.92;;;20.50;99.90;;;21.30;90.97;98023.72;5213052;28;20201;-68
2022/08/28 09:22:25;;;;;;;18.80;16.92;;;20.50;99.90;;;21.45;93.16;98034.41;5214101;28;20296;-67
2022/08/28 09:24:58;;;;;;;19.52;17.50;;;20.60;99.90;;;21.45;90.13;98031.81;5216268;28;20712;-68
2022/08/28 09:27:34;;;;;;;17.42;15.90;;;20.50;99.90;;;21.55;90.66;98025.91;5216335;28;20311;-67
2022/08/28 09:30:12;;;;;;;16.55;14.98;;;20.70;99.90;;;21.74;89.65;98027.06;5216828;28;20189;-68
2022/08/28 09:32:59;;;;;;;16.45;15.00;;;20.90;99.90;;;22.11;88.07;98026.75;5214767;28;20205;-67
2022/08/28 09:35:36;;;;;;;16.27;14.80;;;21.30;99.90;;;22.24;87.51;98023.50;5215729;28;20197;-66
2022/08/28 09:38:20;;;;;;;16.38;14.80;;;21.40;99.90;;;22.29;85.66;98024.44;5215696;28;20552;-67
2022/08/28 09:44:01;;;;;;;15.38;13.98;;;21.90;99.90;;;22.76;86.30;98031.09;5215437;28;20244;-67
2022/08/28 09:46:37;;;;;;;14.43;13.23;;;22.00;99.90;;;22.93;82.48;98022.59;5214225;28;20232;-68
2022/08/28 09:49:13;;;;;;;15.07;13.68;;;22.10;99.90;;;22.68;79.14;98025.78;5217944;28;20575;-66
2022/08/28 09:51:46;;;;;;;13.23;12.13;;;22.00;99.90;;;22.89;82.27;98026.03;5220726;28;20225;-69
2022/08/28 09:54:29;;;;;;;13.10;12.00;;;22.10;99.90;;;23.32;82.25;98015.16;5218316;28;20245;-69
2022/08/28 09:57:03;;;;;;;14.00;12.60;;;22.60;99.90;;;23.63;79.12;98016.28;5219052;28;20284;-69
2022/08/28 09:59:42;;;;;;;12.48;11.43;;;23.00;99.90;;;23.76;77.44;98015.56;5213111;28;20254;-67
2022/08/28 10:02:28;;;;;;;11.80;10.88;;;23.10;99.90;;;23.70;79.17;98012.00;5212510;28;20793;-67
2022/08/28 10:05:10;;;;;;;12.35;11.20;;;23.00;99.90;;;23.45;76.57;98021.38;5215446;28;20640;-67
2022/08/28 10:07:54;;;;;;;12.30;11.20;;;22.70;99.90;;;23.46;77.79;98023.09;5214240;28;20573;-67
2022/08/28 10:10:34;;;;;;;11.30;10.20;;;22.70;99.90;;;23.32;76.22;98016.06;5212057;28;20263;-67
2022/08/28 10:13:16;;;;;;;11.65;10.60;;;22.60;99.90;;;23.29;78.80;98021.25;5215556;28;20205;-67
2022/08/28 10:16:13;;;;;;;11.05;10.05;;;22.50;99.90;;;23.33;79.67;98020.41;5217049;28;20720;-68
2022/08/28 10:18:56;;;;;;;11.45;10.52;;;22.50;99.90;;;23.41;73.84;98022.19;5215344;28;20669;-69
2022/08/28 10:21:36;;;;;;;12.93;11.73;;;22.70;99.90;;;23.46;74.45;98018.75;5221044;28;20236;-69
2022/08/28 10:24:32;;;;;;;13.43;12.10;;;22.70;99.90;;;23.45;75.02;98014.41;5218592;28;20712;-69
2022/08/28 10:27:15;;;;;;;11.35;10.45;;;22.80;99.90;;;23.82;74.03;98007.78;5217460;28;20205;-68
2022/08/28 10:29:55;;;;;;;10.52;9.60;;;23.10;99.90;;;24.17;70.36;98007.09;5216770;28;20282;-67
2022/08/28 10:32:53;;;;;;;12.30;11.10;;;23.50;99.90;;;24.15;70.47;98011.47;5214944;28;20685;-67
2022/08/28 10:35:38;;;;;;;12.05;10.95;;;23.60;99.90;;;24.30;70.22;98009.81;5214538;28;20285;-69
2022/08/28 10:38:16;;;;;;;10.45;9.45;;;23.70;99.90;;;24.24;71.38;98015.88;5217804;28;20258;-68
2022/08/28 10:40:59;;;;;;;11.60;10.55;;;23.70;99.90;;;24.12;70.90;98006.19;5217528;28;20287;-68
2022/08/28 10:43:36;;;;;;;11.30;10.30;;;23.60;99.90;;;24.31;72.10;98001.94;5218750;28;20256;-68
2022/08/28 10:46:13;;;;;;;11.10;10.10;;;23.80;99.90;;;24.34;69.24;97995.88;5221530;28;20224;-67
2022/08/28 10:48:55;;;;;;;10.57;9.68;;;23.90;99.90;;;24.58;72.18;97995.13;5221051;28;20340;-69
2022/08/28 10:51:34;;;;;;;11.07;10.07;;;24.10;99.90;;;24.68;70.38;98000.41;5220420;28;20240;-69
2022/08/28 10:54:21;;;;;;;11.07;10.18;;;24.10;99.90;;;24.63;69.27;97996.00;5222303;28;20220;-69
2022/08/28 10:57:17;;;;;;;10.52;9.52;;;24.00;99.90;;;24.95;70.24;97998.72;5226067;28;20200;-69
2022/08/28 10:59:53;;;;;;;10.85;9.90;;;24.30;99.90;;;25.11;68.09;97992.66;5227020;28;20216;-68
2022/08/28 11:02:28;;;;;;;10.02;9.23;;;24.50;99.90;;;25.26;67.69;97993.56;5225378;28;20253;-69
2022/08/28 11:05:04;;;;;;;9.68;8.90;;;24.60;99.90;;;25.43;65.56;97998.81;5227321;28;20814;-69
2022/08/28 11:07:41;;;;;;;9.60;8.80;;;24.70;99.90;;;25.52;65.31;97997.06;5230270;28;20656;-67
2022/08/28 11:10:48;;;;;;;9.00;8.20;;;24.90;99.90;;;25.38;60.59;98006.66;5233276;28;20259;-66
2022/08/28 11:13:55;;;;;;;8.75;7.95;;;25.00;99.90;;;25.43;62.27;97999.69;5228574;28;20236;-66
2022/08/28 11:16:39;;;;;;;8.60;7.82;;;24.80;99.90;;;25.53;60.88;98001.44;5221742;28;20209;-66
2022/08/28 11:19:48;;;;;;;9.57;8.70;;;25.00;99.90;;;25.68;62.87;98007.53;5225780;28;20213;-69
2022/08/28 11:22:29;;;;;;;9.30;8.38;;;25.10;99.90;;;25.62;61.40;98006.66;5223569;28;20266;-68
2022/08/28 11:25:13;;;;;;;9.85;8.85;;;25.10;99.90;;;25.44;61.69;98004.06;5229565;28;20266;-68
2022/08/28 11:28:16;;;;;;;9.32;8.50;;;24.80;99.90;;;25.40;63.01;98004.91;5230991;28;20204;-69
2022/08/28 11:31:40;;;;;;;8.55;7.95;;;24.80;99.90;;;25.55;64.15;98010.16;5230012;28;20793;-70
2022/08/28 11:34:57;;;;;;;8.73;8.02;;;24.90;99.90;;;25.52;63.57;97999.66;5166060;28;20256;-69
2022/08/28 11:37:40;;;;;;;8.43;7.72;;;24.80;99.90;;;25.50;63.92;97995.34;5230260;28;20208;-67
2022/08/28 11:40:41;;;;;;;9.55;8.65;;;24.80;99.90;;;25.54;64.12;98002.31;5233578;28;20223;-67
2022/08/28 11:43:39;;;;;;;9.88;8.98;;;24.80;99.90;;;25.43;62.29;97993.56;5232504;28;20653;-66
2022/08/28 11:46:26;;;;;;;9.57;8.88;;;24.60;99.90;;;25.31;63.17;97994.44;5230952;28;20208;-67
2022/08/28 11:49:02;;;;;;;8.90;8.20;;;24.50;99.90;;;25.39;63.94;97993.56;5228348;28;20667;-67
2022/08/28 11:52:00;;;;;;;8.75;7.95;;;24.70;99.90;;;25.55;61.39;97994.47;5234083;28;20232;-67
2022/08/28 11:54:49;;;;;;;9.23;8.32;;;24.80;99.90;;;25.61;62.75;97989.22;5231710;28;20244;-68
2022/08/28 11:57:28;;;;;;;8.75;7.95;;;24.90;99.90;;;25.60;59.60;97997.06;5229697;28;20231;-69
2022/08/28 12:00:09;;;;;;;8.07;7.35;;;24.90;99.90;;;25.76;61.95;97992.69;5226987;28;20205;-67
2022/08/28 12:03:09;;;;;;;8.77;8.07;;;25.10;99.90;;;25.80;60.40;97997.03;5229837;28;20228;-69